Donax — S6CF8 — position and weather

sailwx.info

Track history (hours):
 
Tides and Currents Weather Stations Pressure Air Temp Water Temp Dewpoint Dewpoint Depression Visibility Wind Speed Wind Dir Waves Ship Positions

Donax

Last reported at 2017-Dec-17 09:25 UTC. Time now 2017-Dec-18 03:18 UTC.
Position N 38°54' E 003°08'.

Length 244 m; draft 13.9 m.

Type: Ship. MMSI: 564097000.

Date/timePositionNaut miles runAvg speedWind from/ knotsBaromVisibWave heightAir tempDewpointWater temp
2017-Dec-17 09:25N 38°54' E 003°08'  
2017-Dec-14 05:43N 39°10' E 002°14'312.0
2017-Dec-14 05:30N 39°09' E 002°17'611.8
2017-Dec-14 05:01N 39°06' E 002°24'611.8
2017-Dec-14 04:30N 39°04' E 002°31'611.6
2017-Dec-14 04:00N 39°01' E 002°37'611.4
2017-Dec-14 03:30N 38°59' E 002°44'1111.3
2017-Dec-14 02:34N 38°56' E 002°57'611.0
2017-Dec-14 02:04N 38°55' E 003°04'110.9
2017-Dec-14 02:00N 38°55' E 003°05'53711.5
2017-Dec-12 03:19N 36°34' E 014°01'2111.2
2017-Dec-12 01:25N 36°27' E 014°26'511.3
2017-Dec-12 01:00N 36°26' E 014°32'611.3
2017-Dec-12 00:30N 36°25' E 014°38'611.2
2017-Dec-11 23:57N 36°24' E 014°46'44911.7
2017-Dec-10 09:40N 35°46' E 023°60'310.9
2017-Dec-10 09:25N 35°46' E 024°03'410.7
2017-Dec-10 09:00N 35°47' E 024°09'510.8
2017-Dec-10 08:30N 35°47' E 024°15'510.9
2017-Dec-10 08:00N 35°47' E 024°22'510.8
2017-Dec-10 07:31N 35°47' E 024°29'611.0
2017-Dec-10 07:00N 35°47' E 024°36'611.3
2017-Dec-10 06:30N 35°47' E 024°42'611.5
2017-Dec-10 06:00N 35°47' E 024°50'711.3
2017-Dec-10 05:24N 35°47' E 024°58'511.6
2017-Dec-10 05:00N 35°46' E 025°04'611.9
2017-Dec-10 04:31N 35°46' E 025°11'611.8
2017-Dec-10 04:01N 35°46' E 025°18'611.6
2017-Dec-10 03:30N 35°46' E 025°25'611.2
2017-Dec-10 03:00N 35°46' E 025°32'611.0
2017-Dec-10 02:30N 35°46' E 025°39'511.1
2017-Dec-10 02:00N 35°46' E 025°46'511.0
2017-Dec-10 01:30N 35°46' E 025°53'611.6
2017-Dec-10 01:00N 35°45' E 025°60'612.1
2017-Dec-10 00:30N 35°45' E 026°07'612.1
2017-Dec-10 00:00N 35°45' E 026°15'612.2
2017-Dec-09 23:30N 35°45' E 026°22'2411.8
2017-Dec-09 21:27N 35°47' E 026°52'  
Track history (hours):
 
Tides and Currents Weather Stations Pressure Air Temp Water Temp Dewpoint Dewpoint Depression Visibility Wind Speed Wind Dir Waves Ship Positions

Donax

Last reported at 2017-Dec-17 09:25 UTC. Time now 2017-Dec-18 03:18 UTC.
Position N 38°54' E 003°08'.

Length 244 m; draft 13.9 m.

Type: Ship. MMSI: 564097000.

Date/timePositionNaut miles runAvg speedWind from/ knotsBaromVisibWave heightAir tempDewpointWater temp
2017-Dec-17 09:25N 38°54' E 003°08'  
2017-Dec-14 05:43N 39°10' E 002°14'312.0
2017-Dec-14 05:30N 39°09' E 002°17'611.8
2017-Dec-14 05:01N 39°06' E 002°24'611.8
2017-Dec-14 04:30N 39°04' E 002°31'611.6
2017-Dec-14 04:00N 39°01' E 002°37'611.4
2017-Dec-14 03:30N 38°59' E 002°44'1111.3
2017-Dec-14 02:34N 38°56' E 002°57'611.0
2017-Dec-14 02:04N 38°55' E 003°04'110.9
2017-Dec-14 02:00N 38°55' E 003°05'53711.5
2017-Dec-12 03:19N 36°34' E 014°01'2111.2
2017-Dec-12 01:25N 36°27' E 014°26'511.3
2017-Dec-12 01:00N 36°26' E 014°32'611.3
2017-Dec-12 00:30N 36°25' E 014°38'611.2
2017-Dec-11 23:57N 36°24' E 014°46'44911.7
2017-Dec-10 09:40N 35°46' E 023°60'310.9
2017-Dec-10 09:25N 35°46' E 024°03'410.7
2017-Dec-10 09:00N 35°47' E 024°09'510.8
2017-Dec-10 08:30N 35°47' E 024°15'510.9
2017-Dec-10 08:00N 35°47' E 024°22'510.8
2017-Dec-10 07:31N 35°47' E 024°29'611.0
2017-Dec-10 07:00N 35°47' E 024°36'611.3
2017-Dec-10 06:30N 35°47' E 024°42'611.5
2017-Dec-10 06:00N 35°47' E 024°50'711.3
2017-Dec-10 05:24N 35°47' E 024°58'511.6
2017-Dec-10 05:00N 35°46' E 025°04'611.9
2017-Dec-10 04:31N 35°46' E 025°11'611.8
2017-Dec-10 04:01N 35°46' E 025°18'611.6
2017-Dec-10 03:30N 35°46' E 025°25'611.2
2017-Dec-10 03:00N 35°46' E 025°32'611.0
2017-Dec-10 02:30N 35°46' E 025°39'511.1
2017-Dec-10 02:00N 35°46' E 025°46'511.0
2017-Dec-10 01:30N 35°46' E 025°53'611.6
2017-Dec-10 01:00N 35°45' E 025°60'612.1
2017-Dec-10 00:30N 35°45' E 026°07'612.1
2017-Dec-10 00:00N 35°45' E 026°15'612.2
2017-Dec-09 23:30N 35°45' E 026°22'2411.8
2017-Dec-09 21:27N 35°47' E 026°52'  

Dump ship's entire track history